Time;durP1;ratioP1;P1;durP2;ratioP2;P2;SDS_P1;SDS_P2;PMS_P1;PMS_P2;Temp;Humidity;BMP_temperature;BMP_pressure;BME280_temperature;BME280_humidity;BME280_pressure;Samples;Min_cycle;Max_cycle;Signal;HPM_P1;HPM_P2
2020/12/11 00:01:43;;;;;;;30.48;17.90;;;;;;;2.76;74.12;99399.47;5044253;28;20041;-86
2020/12/11 00:04:09;;;;;;;28.70;17.73;;;;;;;2.83;74.39;99414.03;5047159;28;20468;-85
2020/12/11 00:06:36;;;;;;;32.65;19.33;;;;;;;2.86;74.79;99397.41;5048855;28;20414;-85
2020/12/11 00:09:02;;;;;;;29.27;17.98;;;;;;;2.92;73.58;99402.47;5037766;28;20057;-84
2020/12/11 00:11:29;;;;;;;30.63;18.33;;;;;;;2.90;73.98;99395.56;5044868;28;20049;-84
2020/12/11 00:13:57;;;;;;;30.75;18.52;;;;;;;2.85;74.14;99387.84;5040891;28;20080;-84
2020/12/11 00:16:24;;;;;;;27.52;17.23;;;;;;;2.81;73.99;99376.66;5044846;28;20132;-85
2020/12/11 00:18:51;;;;;;;28.67;18.02;;;;;;;2.82;73.96;99372.28;5024112;28;20113;-86
2020/12/11 00:21:17;;;;;;;28.90;17.08;;;;;;;2.81;73.68;99370.59;5039196;28;20130;-85
2020/12/11 00:23:44;;;;;;;30.15;17.77;;;;;;;2.76;74.58;99359.41;5022685;28;20063;-85
2020/12/11 00:26:10;;;;;;;27.75;17.50;;;;;;;2.69;74.01;99347.41;5049428;28;20049;-87
2020/12/11 00:29:08;;;;;;;29.67;17.73;;;;;;;2.79;74.71;99364.53;5030697;28;20121;-87
2020/12/11 00:31:38;;;;;;;26.48;16.70;;;;;;;2.76;73.94;99349.81;5045078;28;20041;-87
2020/12/11 00:34:04;;;;;;;25.60;16.67;;;;;;;2.77;74.43;99348.03;5053238;28;20036;-88
2020/12/11 00:36:33;;;;;;;27.98;17.63;;;;;;;2.80;73.65;99358.41;5032524;28;20079;-86
2020/12/11 00:39:03;;;;;;;26.13;17.17;;;;;;;2.83;73.74;99353.91;5029508;28;20073;-85
2020/12/11 00:41:30;;;;;;;26.20;16.63;;;;;;;2.72;73.98;99329.88;5037427;28;20049;-86
2020/12/11 00:43:56;;;;;;;27.42;17.50;;;;;;;2.85;73.63;99345.16;5044067;28;20046;-86
2020/12/11 00:46:25;;;;;;;26.35;17.80;;;;;;;2.80;73.62;99335.75;5041356;28;20061;-86
2020/12/11 00:48:52;;;;;;;25.85;17.27;;;;;;;2.84;72.95;99339.09;5043014;28;20053;-86
2020/12/11 00:51:20;;;;;;;30.23;17.90;;;;;;;2.81;73.51;99333.97;5031971;28;20514;-86
2020/12/11 00:53:52;;;;;;;27.48;16.67;;;;;;;2.81;73.05;99328.75;5049143;28;20053;-86
2020/12/11 00:56:20;;;;;;;22.98;15.40;;;;;;;2.83;73.24;99322.53;5040354;28;20053;-86
2020/12/11 00:58:48;;;;;;;21.85;15.02;;;;;;;2.81;72.91;99308.69;5040006;28;20052;-86
2020/12/11 01:01:15;;;;;;;25.50;15.60;;;;;;;2.86;72.87;99311.13;5041224;28;20041;-85
2020/12/11 01:03:42;;;;;;;24.92;16.25;;;;;;;2.86;73.29;99308.53;5038344;28;20050;-85
2020/12/11 01:06:08;;;;;;;24.40;15.90;;;;;;;2.88;73.27;99308.47;5035754;28;20140;-85
2020/12/11 01:08:36;;;;;;;23.83;15.57;;;;;;;2.79;73.37;99297.44;5039101;28;20053;-86
2020/12/11 01:11:03;;;;;;;24.08;15.40;;;;;;;2.88;72.40;99325.00;5007721;28;20053;-84
2020/12/11 01:13:31;;;;;;;20.92;14.23;;;;;;;2.85;72.62;99322.50;5030937;28;20111;-85
2020/12/11 01:15:58;;;;;;;23.02;15.63;;;;;;;2.89;72.83;99318.03;5032669;28;20119;-85
2020/12/11 01:18:25;;;;;;;23.75;15.68;;;;;;;2.91;72.52;99324.06;5037866;28;20560;-85
2020/12/11 01:20:51;;;;;;;26.23;16.77;;;;;;;2.90;71.75;99317.13;5037059;28;20076;-85
2020/12/11 01:23:18;;;;;;;20.52;14.38;;;;;;;2.84;72.08;99312.94;5037565;28;20107;-85
2020/12/11 01:25:44;;;;;;;20.88;14.68;;;;;;;2.69;72.31;99293.38;5038176;28;20128;-85
2020/12/11 01:28:11;;;;;;;22.40;14.73;;;;;;;2.75;72.43;99297.56;5039393;28;20073;-86
2020/12/11 01:30:39;;;;;;;18.38;13.70;;;;;;;2.73;72.75;99299.38;5041181;28;20064;-85
2020/12/11 01:33:09;;;;;;;19.00;13.50;;;;;;;2.70;72.36;99283.78;5036440;28;20060;-87
2020/12/11 01:35:37;;;;;;;20.25;13.95;;;;;;;2.71;72.28;99277.66;5038745;28;20053;-85
2020/12/11 01:38:05;;;;;;;19.30;13.38;;;;;;;2.77;71.71;99286.16;5039682;28;20061;-85
2020/12/11 01:40:36;;;;;;;19.90;13.48;;;;;;;2.79;70.93;99278.28;5014578;28;20061;-83
2020/12/11 01:43:03;;;;;;;;;;;;;;;2.75;71.10;99268.81;5021823;28;20053;-85
2020/12/11 01:45:30;;;;;;;20.67;13.23;;;;;;;2.66;70.98;99256.91;5019580;28;19974;-85
2020/12/11 01:47:58;;;;;;;16.10;12.00;;;;;;;2.59;71.59;99241.47;5024138;28;20111;-87
2020/12/11 01:50:25;;;;;;;19.65;13.00;;;;;;;2.58;71.41;99240.63;5041630;28;20068;-84
2020/12/11 01:52:53;;;;;;;17.30;12.60;;;;;;;2.55;71.88;99229.41;5052427;28;20061;-87
2020/12/11 01:55:20;;;;;;;18.83;13.38;;;;;;;2.49;71.74;99213.94;5046227;28;20053;-85
2020/12/11 01:57:52;;;;;;;18.27;13.15;;;;;;;2.66;72.15;99237.75;5036438;28;20053;-85
2020/12/11 02:00:21;;;;;;;18.73;13.23;;;;;;;2.61;71.48;99221.38;5053772;28;20045;-85
2020/12/11 02:02:52;;;;;;;17.63;13.27;;;;;;;2.65;71.73;99228.22;5052277;28;20069;-85
2020/12/11 02:05:23;;;;;;;18.98;13.45;;;;;;;2.56;71.41;99218.06;5054840;28;20068;-84
2020/12/11 02:07:52;;;;;;;18.65;13.30;;;;;;;2.61;71.64;99218.75;5052836;28;20063;-83
2020/12/11 02:10:22;;;;;;;19.10;14.60;;;;;;;2.71;71.79;99228.84;5046091;28;20076;-85
2020/12/11 02:12:49;;;;;;;17.98;12.82;;;;;;;2.66;71.86;99215.09;5024555;28;20068;-85
2020/12/11 02:15:18;;;;;;;17.92;12.88;;;;;;;2.71;71.49;99204.47;5024769;28;20068;-85
2020/12/11 02:17:44;;;;;;;17.60;12.52;;;;;;;2.72;71.02;99214.00;5040214;28;20053;-87
2020/12/11 02:20:11;;;;;;;16.73;12.98;;;;;;;2.71;71.08;99210.53;5051484;28;20033;-85
2020/12/11 02:22:41;;;;;;;18.52;13.68;;;;;;;2.73;71.80;99213.09;5053549;28;20109;-85
2020/12/11 02:25:09;;;;;;;17.35;12.45;;;;;;;2.70;71.08;99208.84;5052988;28;20057;-85
2020/12/11 02:27:38;;;;;;;17.25;12.50;;;;;;;2.70;71.53;99195.75;5041671;28;20053;-85
2020/12/11 02:30:05;;;;;;;17.58;12.55;;;;;;;2.74;71.88;99192.16;5037422;28;20076;-86
2020/12/11 02:32:32;;;;;;;19.00;13.52;;;;;;;2.76;71.11;99202.56;5027535;28;20081;-84
2020/12/11 02:34:58;;;;;;;17.80;13.23;;;;;;;2.75;71.04;99193.00;5044585;28;20060;-86
2020/12/11 02:37:25;;;;;;;17.40;12.70;;;;;;;2.69;71.00;99172.28;5029414;28;20072;-85
2020/12/11 02:39:51;;;;;;;17.42;13.23;;;;;;;2.72;71.47;99178.28;5024887;28;20045;-85
2020/12/11 02:42:18;;;;;;;17.95;12.52;;;;;;;2.71;71.60;99178.31;5049368;28;20179;-85
2020/12/11 02:44:44;;;;;;;17.20;12.65;;;;;;;2.71;71.18;99176.56;5024537;28;20125;-85
2020/12/11 02:47:14;;;;;;;17.65;12.45;;;;;;;2.66;71.04;99167.19;5042372;28;20052;-87
2020/12/11 02:49:41;;;;;;;18.23;12.37;;;;;;;2.74;70.58;99167.78;5048105;28;20061;-85
2020/12/11 02:52:08;;;;;;;17.85;12.32;;;;;;;2.73;70.96;99169.53;5038263;28;20103;-85
2020/12/11 02:54:34;;;;;;;18.15;12.63;;;;;;;2.64;71.15;99154.19;5037137;28;20073;-84
2020/12/11 02:57:00;;;;;;;17.40;12.77;;;;;;;2.71;71.04;99144.34;5038579;28;20049;-86
2020/12/11 02:59:27;;;;;;;18.90;13.02;;;;;;;2.71;70.79;99139.97;5026147;28;20053;-84
2020/12/11 03:01:53;;;;;;;19.15;13.20;;;;;;;2.75;71.15;99143.34;5028227;28;20073;-84
2020/12/11 03:04:22;;;;;;;19.45;13.15;;;;;;;2.78;71.51;99138.00;5024722;28;20055;-85
2020/12/11 03:06:48;;;;;;;19.77;13.57;;;;;;;2.77;71.29;99138.91;5045605;28;20506;-85
2020/12/11 03:09:14;;;;;;;19.27;12.88;;;;;;;2.76;70.77;99135.44;5041643;28;20098;-86
2020/12/11 03:11:41;;;;;;;17.77;13.00;;;;;;;2.75;71.44;99131.13;5050244;28;20063;-84
2020/12/11 03:14:10;;;;;;;19.23;13.38;;;;;;;2.73;71.06;99121.63;5028787;28;20056;-84
2020/12/11 03:16:37;;;;;;;18.13;12.75;;;;;;;2.74;70.91;99115.50;5039805;28;20056;-84
2020/12/11 03:19:03;;;;;;;16.33;12.40;;;;;;;2.71;70.94;99113.84;5037737;28;20050;-84
2020/12/11 03:21:30;;;;;;;16.88;11.73;;;;;;;2.66;71.47;99110.56;5051309;28;20049;-85
2020/12/11 03:23:57;;;;;;;18.77;12.98;;;;;;;2.65;71.38;99101.00;5054943;28;20059;-85
2020/12/11 03:26:23;;;;;;;18.90;13.27;;;;;;;2.64;71.86;99098.44;5047663;28;20121;-85
2020/12/11 03:28:51;;;;;;;19.10;13.18;;;;;;;2.56;72.20;99096.09;5051851;28;20053;-85
2020/12/11 03:31:18;;;;;;;21.50;14.48;;;;;;;2.62;71.99;99095.03;5046437;28;20110;-86
2020/12/11 03:33:45;;;;;;;19.13;14.60;;;;;;;2.65;72.07;99098.38;5049886;28;20060;-85
2020/12/11 03:36:17;;;;;;;23.67;15.48;;;;;;;2.63;72.56;99087.13;5034229;28;20096;-86
2020/12/11 03:38:51;;;;;;;24.50;15.70;;;;;;;2.65;72.46;99082.72;5047774;28;20123;-85
2020/12/11 03:41:19;;;;;;;26.67;16.40;;;;;;;2.66;73.10;99086.19;5037271;28;20041;-85
2020/12/11 03:43:45;;;;;;;26.30;16.17;;;;;;;2.67;73.75;99090.50;5026262;28;20073;-86
2020/12/11 03:46:22;;;;;;;22.40;15.35;;;;;;;2.61;74.24;99081.09;5033071;28;20165;-84
2020/12/11 03:48:50;;;;;;;26.55;15.70;;;;;;;2.59;74.31;99084.66;5049407;28;20026;-84
2020/12/11 03:51:24;;;;;;;25.13;15.60;;;;;;;2.58;74.08;99075.13;5053607;28;20393;-84
2020/12/11 03:53:54;;;;;;;25.35;15.57;;;;;;;2.57;74.73;99071.66;5039305;28;20064;-85
2020/12/11 03:56:20;;;;;;;27.88;15.90;;;;;;;2.62;74.64;99076.72;5022841;28;20238;-86
2020/12/11 03:58:47;;;;;;;25.25;15.90;;;;;;;2.61;74.85;99065.41;5029491;28;20051;-84
2020/12/11 04:01:15;;;;;;;28.08;16.75;;;;;;;2.66;75.39;99067.88;5033840;28;20447;-84
2020/12/11 04:03:42;;;;;;;24.58;14.90;;;;;;;2.71;74.59;99058.94;5043543;28;20056;-86
2020/12/11 04:06:18;;;;;;;23.73;14.98;;;;;;;2.72;74.34;99068.50;5037695;28;20058;-86
2020/12/11 04:08:44;;;;;;;25.25;15.02;;;;;;;2.73;74.97;99058.88;5024033;28;20041;-86
2020/12/11 04:11:13;;;;;;;27.73;16.17;;;;;;;2.74;74.82;99068.44;5040827;28;20041;-84
2020/12/11 04:13:41;;;;;;;26.42;15.45;;;;;;;2.68;75.59;99061.66;5034168;28;25780;-84
2020/12/11 04:16:09;;;;;;;25.88;14.50;;;;;;;2.63;74.90;99057.53;5036265;28;20116;-84
2020/12/11 04:18:36;;;;;;;23.30;15.13;;;;;;;2.58;75.44;99047.22;5009124;28;20045;-84
2020/12/11 04:21:10;;;;;;;23.38;14.52;;;;;;;2.54;75.97;99047.38;5035421;28;20067;-83
2020/12/11 04:23:37;;;;;;;24.63;15.18;;;;;;;2.49;76.65;99044.09;5033455;28;20498;-83
2020/12/11 04:26:04;;;;;;;26.13;16.15;;;;;;;2.40;76.47;99043.50;5032942;28;20052;-85
2020/12/11 04:28:31;;;;;;;24.10;15.70;;;;;;;2.36;77.67;99033.25;5038865;28;20049;-83
2020/12/11 04:30:58;;;;;;;25.45;15.85;;;;;;;2.35;76.75;99029.78;5044811;28;20044;-84
2020/12/11 04:33:25;;;;;;;24.90;14.75;;;;;;;2.34;77.36;99028.06;5054515;28;20088;-85
2020/12/11 04:35:52;;;;;;;23.38;14.45;;;;;;;2.32;77.42;99035.13;5049466;28;20045;-84
2020/12/11 04:38:19;;;;;;;25.70;15.32;;;;;;;2.27;76.99;99028.34;5038021;28;20081;-85
2020/12/11 04:40:46;;;;;;;26.35;15.48;;;;;;;2.35;77.35;99029.78;5054950;28;20042;-86
2020/12/11 04:43:12;;;;;;;26.70;15.60;;;;;;;2.38;77.40;99029.66;5050015;28;20660;-86
2020/12/11 04:45:40;;;;;;;23.90;14.90;;;;;;;2.34;77.20;99025.47;5049163;28;20179;-84
2020/12/11 04:48:10;;;;;;;26.30;15.98;;;;;;;2.32;77.60;99027.28;5020621;28;20053;-86
2020/12/11 04:50:37;;;;;;;24.15;15.23;;;;;;;2.32;77.21;99029.03;5035408;28;20053;-85
2020/12/11 04:53:04;;;;;;;26.52;16.17;;;;;;;2.30;77.15;99025.63;5042497;28;20053;-85
2020/12/11 04:55:37;;;;;;;25.63;15.90;;;;;;;2.33;77.39;99021.16;5025400;28;20049;-86
2020/12/11 04:58:05;;;;;;;27.90;15.80;;;;;;;2.34;77.03;99020.25;5016675;28;20068;-86
2020/12/11 05:00:31;;;;;;;24.85;15.43;;;;;;;2.39;76.93;99017.44;5031913;28;20152;-85
2020/12/11 05:03:00;;;;;;;25.48;15.27;;;;;;;2.37;77.08;99008.81;5018841;28;20967;-85
2020/12/11 05:05:30;;;;;;;21.80;14.48;;;;;;;2.38;76.72;98997.44;5034156;28;20480;-86
2020/12/11 05:07:56;;;;;;;23.65;15.30;;;;;;;2.36;76.52;99002.72;5029474;28;20069;-86
2020/12/11 05:10:23;;;;;;;26.08;16.10;;;;;;;2.37;77.08;98999.22;5038445;28;20081;-87
2020/12/11 05:12:50;;;;;;;27.10;15.98;;;;;;;2.40;77.13;99009.56;5037177;28;20042;-86
2020/12/11 05:15:26;;;;;;;23.70;15.00;;;;;;;2.42;76.67;99009.50;5029119;28;20056;-87
2020/12/11 05:17:54;;;;;;;26.48;16.23;;;;;;;2.41;76.76;99003.41;5035682;28;20072;-86
2020/12/11 05:20:26;;;;;;;25.88;15.45;;;;;;;2.42;77.25;98999.06;5038934;28;20053;-86
2020/12/11 05:22:53;;;;;;;23.88;15.38;;;;;;;2.41;77.09;98997.34;5043664;28;20060;-86
2020/12/11 05:25:22;;;;;;;26.55;16.65;;;;;;;2.39;77.09;98997.41;5040366;28;20570;-87
2020/12/11 05:27:48;;;;;;;24.65;15.63;;;;;;;2.37;76.60;98993.97;5037040;28;20049;-87
2020/12/11 05:30:17;;;;;;;25.08;15.63;;;;;;;2.42;76.87;98999.06;5045035;28;20064;-86
2020/12/11 05:32:52;;;;;;;26.45;15.48;;;;;;;2.37;76.85;98991.38;5021185;28;20057;-86
2020/12/11 05:35:19;;;;;;;25.35;15.13;;;;;;;2.35;77.17;98984.53;5043121;28;20072;-88
2020/12/11 05:38:06;;;;;;;24.88;15.57;;;;;;;2.34;77.01;98965.38;5037942;28;20045;-87
2020/12/11 05:40:34;;;;;;;28.63;17.33;;;;;;;2.33;77.35;98971.50;5018690;28;20116;-86
2020/12/11 05:43:18;;;;;;;25.80;16.45;;;;;;;2.39;77.48;98963.44;5041689;28;20046;-86
2020/12/11 05:45:59;;;;;;;27.10;15.98;;;;;;;2.35;77.12;98948.81;5040918;28;20097;-84
2020/12/11 05:48:36;;;;;;;27.27;16.13;;;;;;;2.40;76.38;98946.84;5045453;28;20052;-88
2020/12/11 05:51:12;;;;;;;26.52;16.23;;;;;;;2.36;76.63;98947.88;5056891;28;20084;-86
2020/12/11 05:53:39;;;;;;;26.02;15.82;;;;;;;2.34;77.29;98949.72;5052500;28;20164;-86
2020/12/11 05:56:06;;;;;;;25.15;15.27;;;;;;;2.34;77.26;98952.31;5041412;28;20500;-87
2020/12/11 05:58:33;;;;;;;26.23;16.35;;;;;;;2.27;77.80;98947.38;5045565;28;20049;-86
2020/12/11 06:01:00;;;;;;;28.00;16.42;;;;;;;2.28;78.43;98949.91;5053218;28;20105;-88
2020/12/11 06:03:41;;;;;;;26.80;16.45;;;;;;;2.29;77.98;98948.16;5041054;28;20076;-85
2020/12/11 06:06:17;;;;;;;26.95;16.13;;;;;;;2.29;77.91;98951.63;5050152;28;20105;-85
2020/12/11 06:09:03;;;;;;;25.13;16.23;;;;;;;2.26;78.08;98949.13;5032509;28;20065;-86
2020/12/11 06:11:42;;;;;;;29.25;17.25;;;;;;;2.25;77.73;98951.78;5054586;28;20204;-83
2020/12/11 06:14:21;;;;;;;31.25;17.70;;;;;;;2.23;77.60;98943.16;5056193;28;20129;-87
2020/12/11 06:16:51;;;;;;;30.15;17.95;;;;;;;2.22;78.08;98937.06;5052845;28;20051;-85
2020/12/11 06:19:19;;;;;;;28.85;17.08;;;;;;;2.19;77.73;98918.94;5040877;28;20044;-89
2020/12/11 06:22:01;;;;;;;28.33;17.42;;;;;;;2.20;77.80;98923.25;5019586;28;20037;-88
2020/12/11 06:24:30;;;;;;;27.85;17.27;;;;;;;2.18;78.38;98919.84;5051592;28;20041;-87
2020/12/11 06:27:04;;;;;;;28.45;17.02;;;;;;;2.17;78.36;98902.47;5028611;28;20045;-87
2020/12/11 06:29:40;;;;;;;33.45;18.35;;;;;;;2.15;77.88;98899.06;5052892;28;20064;-88
2020/12/11 06:32:31;;;;;;;31.77;18.15;;;;;;;2.14;78.50;98886.91;5057555;28;20048;-87
2020/12/11 06:35:12;;;;;;;27.80;17.13;;;;;;;2.15;78.60;98885.13;5054370;28;20114;-86
2020/12/11 06:37:40;;;;;;;28.73;17.67;;;;;;;2.16;78.03;98900.75;5041481;28;20057;-86
2020/12/11 06:40:11;;;;;;;31.85;19.02;;;;;;;2.19;78.02;98902.41;5045852;28;20061;-85
2020/12/11 06:42:46;;;;;;;31.80;18.65;;;;;;;2.20;78.58;98899.75;5049951;28;20080;-87
2020/12/11 06:45:26;;;;;;;30.05;17.95;;;;;;;2.29;77.91;98901.16;5053078;28;20042;-86
2020/12/11 06:47:59;;;;;;;30.88;18.92;;;;;;;2.29;77.85;98896.78;5046976;28;20061;-86
2020/12/11 06:50:30;;;;;;;28.85;18.17;;;;;;;2.37;77.72;98896.47;5029417;28;20073;-86
2020/12/11 06:52:59;;;;;;;29.00;18.38;;;;;;;2.44;76.41;98885.75;5017126;28;20042;-85
2020/12/11 06:55:52;;;;;;;34.78;18.58;;;;;;;2.46;77.01;98886.53;5033724;28;20076;-86
2020/12/11 06:58:21;;;;;;;29.92;18.25;;;;;;;2.47;76.84;98884.78;5007012;28;20059;-86
2020/12/11 07:00:57;;;;;;;32.17;19.10;;;;;;;2.54;76.70;98874.94;5024024;28;20113;-86
2020/12/11 07:03:28;;;;;;;31.38;18.83;;;;;;;2.54;76.35;98865.34;5022717;28;20416;-85
2020/12/11 07:06:05;;;;;;;32.08;20.08;;;;;;;2.54;76.76;98862.72;5022060;28;20127;-86
2020/12/11 07:08:35;;;;;;;27.52;17.75;;;;;;;2.57;77.18;98859.13;5031874;28;20121;-85
2020/12/11 07:11:03;;;;;;;32.70;19.48;;;;;;;2.66;77.86;98849.19;5029124;28;20049;-85
2020/12/11 07:13:30;;;;;;;31.17;18.63;;;;;;;2.74;75.46;98848.88;5031552;28;20041;-85
2020/12/11 07:15:59;;;;;;;34.13;19.80;;;;;;;2.73;75.46;98845.41;5013476;28;20046;-85
2020/12/11 07:18:27;;;;;;;34.92;19.95;;;;;;;2.68;76.17;98847.34;5039651;28;20107;-85
2020/12/11 07:20:58;;;;;;;32.08;19.10;;;;;;;2.70;75.40;98845.53;5042905;28;20042;-86
2020/12/11 07:23:26;;;;;;;34.25;19.85;;;;;;;2.69;75.79;98832.50;5050725;28;20045;-85
2020/12/11 07:25:55;;;;;;;33.20;18.95;;;;;;;2.69;76.19;98833.38;5027758;28;20132;-85
2020/12/11 07:28:22;;;;;;;32.95;19.65;;;;;;;2.65;75.37;98823.97;5031037;28;20632;-87
2020/12/11 07:30:49;;;;;;;31.83;19.35;;;;;;;2.65;75.76;98837.03;5038108;28;20083;-86
2020/12/11 07:33:19;;;;;;;33.47;20.40;;;;;;;2.62;75.84;98836.31;5034324;28;20038;-85
2020/12/11 07:35:51;;;;;;;34.50;19.55;;;;;;;2.64;76.03;98837.09;5046216;28;20079;-87
2020/12/11 07:38:26;;;;;;;36.05;20.83;;;;;;;2.62;75.76;98836.31;5039748;28;20049;-86
2020/12/11 07:41:02;;;;;;;36.05;19.27;;;;;;;2.65;76.22;98841.41;5038757;28;20049;-86
2020/12/11 07:43:29;;;;;;;35.08;18.95;;;;;;;2.73;75.22;98839.34;5031362;28;20103;-87
2020/12/11 07:45:55;;;;;;;35.72;21.02;;;;;;;2.71;75.54;98828.09;5034262;28;20049;-88
2020/12/11 07:48:25;;;;;;;37.90;19.70;;;;;;;2.69;75.61;98837.75;5027522;28;20073;-86
2020/12/11 07:51:06;;;;;;;32.75;19.58;;;;;;;2.71;75.81;98843.75;5038482;28;20115;-88
2020/12/11 07:53:36;;;;;;;34.97;20.88;;;;;;;2.73;75.63;98834.97;5018645;28;20109;-87
2020/12/11 07:56:15;;;;;;;34.47;20.52;;;;;;;2.74;75.78;98836.66;5041656;28;20049;-86
2020/12/11 07:58:41;;;;;;;34.85;19.75;;;;;;;2.78;75.47;98838.25;5042283;28;20049;-84
2020/12/11 08:01:09;;;;;;;30.88;18.73;;;;;;;2.88;77.69;98841.31;5031186;28;20092;-84
2020/12/11 08:03:36;;;;;;;33.78;20.30;;;;;;;2.94;75.19;98838.47;5027218;28;20049;-86
2020/12/11 08:06:11;;;;;;;33.78;20.25;;;;;;;2.92;74.88;98834.22;5023886;28;20108;-85
2020/12/11 08:08:39;;;;;;;35.97;20.20;;;;;;;2.90;75.28;98833.44;5031699;28;20056;-86
2020/12/11 08:11:23;;;;;;;31.63;19.70;;;;;;;2.88;74.90;98833.47;5023807;28;20045;-86
2020/12/11 08:14:04;;;;;;;34.75;20.50;;;;;;;2.95;75.57;98836.72;5034606;28;20136;-86
2020/12/11 08:16:32;;;;;;;34.40;20.25;;;;;;;3.05;75.26;98836.25;5040003;28;20061;-88
2020/12/11 08:19:02;;;;;;;33.80;20.98;;;;;;;3.03;74.88;98830.25;5026688;28;20049;-88
2020/12/11 08:21:35;;;;;;;38.40;20.17;;;;;;;2.97;74.19;98819.19;5001702;28;20070;-87
2020/12/11 08:24:03;;;;;;;34.10;19.88;;;;;;;2.95;74.17;98814.03;5039034;28;20041;-87
2020/12/11 08:26:38;;;;;;;33.75;20.33;;;;;;;3.00;74.57;98819.91;5036765;28;20053;-87
2020/12/11 08:29:04;;;;;;;32.13;19.05;;;;;;;3.05;73.81;98819.72;5019696;28;20065;-87
2020/12/11 08:31:38;;;;;;;32.42;19.92;;;;;;;3.07;74.73;98834.44;5036844;28;20081;-87
2020/12/11 08:34:12;;;;;;;32.42;20.15;;;;;;;3.10;74.21;98812.53;5034253;28;20053;-88
2020/12/11 08:36:48;;;;;;;34.30;20.30;;;;;;;3.15;74.29;98816.66;5018800;28;20057;-88
2020/12/11 08:39:20;;;;;;;33.55;19.25;;;;;;;3.18;73.31;98815.66;5039338;28;20050;-85
2020/12/11 08:45:15;;;;;;;32.95;19.60;;;;;;;3.12;73.83;98801.09;5037393;28;20057;-86
2020/12/11 08:48:04;;;;;;;32.85;19.33;;;;;;;3.13;73.46;98797.56;5033096;28;20061;-88
2020/12/11 08:53:53;;;;;;;35.65;20.38;;;;;;;3.20;74.12;98799.91;4998238;28;20052;-87
2020/12/11 08:56:45;;;;;;;34.25;19.67;;;;;;;3.25;73.98;98795.34;5045948;28;20061;-87
2020/12/11 08:59:14;;;;;;;32.75;19.85;;;;;;;3.24;73.97;98775.34;5043940;28;20049;-87
2020/12/11 09:01:41;;;;;;;35.22;20.20;;;;;;;3.44;72.63;98788.41;5017055;28;20045;-86
2020/12/11 09:04:08;;;;;;;32.97;20.45;;;;;;;3.49;72.41;98784.66;5043399;28;20053;-86
2020/12/11 09:06:46;;;;;;;33.17;20.63;;;;;;;3.56;71.87;98781.78;5040954;28;20076;-86
2020/12/11 09:09:15;;;;;;;35.28;20.13;;;;;;;3.59;71.91;98781.66;5027893;28;20065;-84
2020/12/11 09:11:41;;;;;;;34.05;19.83;;;;;;;3.59;72.05;98772.03;5036130;28;20076;-86
2020/12/11 09:14:08;;;;;;;31.13;19.17;;;;;;;3.56;71.62;98768.69;5059103;28;20459;-89
2020/12/11 09:16:37;;;;;;;36.15;20.48;;;;;;;3.62;71.49;98789.38;5042014;28;20054;-86
2020/12/11 09:19:06;;;;;;;34.20;19.95;;;;;;;3.65;71.25;98776.97;5048154;28;20055;-87
2020/12/11 09:21:34;;;;;;;32.42;19.65;;;;;;;3.82;71.52;98779.69;5028863;28;20045;-86
2020/12/11 09:24:01;;;;;;;34.38;19.50;;;;;;;3.82;70.57;98782.31;5029995;28;20057;-87
2020/12/11 09:26:37;;;;;;;33.25;18.67;;;;;;;3.77;70.98;98773.84;5045879;28;20103;-86
2020/12/11 09:29:25;;;;;;;32.25;19.50;;;;;;;3.73;71.16;98769.66;5047914;28;20053;-84
2020/12/11 09:32:01;;;;;;;32.13;19.40;;;;;;;3.82;71.04;98766.59;5030434;28;20064;-85
2020/12/11 09:34:34;;;;;;;31.23;19.33;;;;;;;3.91;71.58;98769.72;5053242;28;20076;-86
2020/12/11 09:37:04;;;;;;;32.88;19.52;;;;;;;4.02;70.73;98767.47;5034903;28;20053;-87
2020/12/11 09:39:50;;;;;;;34.92;19.38;;;;;;;4.12;70.67;98766.94;5026794;28;20045;-85
2020/12/11 09:45:36;;;;;;;31.23;18.58;;;;;;;4.11;70.02;98762.63;4961255;28;20071;-85
2020/12/11 09:48:17;;;;;;;30.45;18.42;;;;;;;3.94;69.64;98730.28;4956124;29;20070;-87
2020/12/11 09:53:19;;;;;;;29.25;19.02;;;;;;;4.03;69.01;98742.97;5056422;28;20054;-84
2020/12/11 09:55:52;;;;;;;32.65;19.40;;;;;;;4.11;69.98;98746.91;5049100;28;20041;-85
2020/12/11 09:58:25;;;;;;;27.83;17.58;;;;;;;4.23;69.34;98745.50;5039257;28;20041;-86
2020/12/11 10:00:53;;;;;;;31.67;18.83;;;;;;;4.23;68.86;98745.50;5049626;28;20096;-86
2020/12/11 10:03:29;;;;;;;30.33;18.42;;;;;;;4.16;68.57;98751.94;5055419;28;20084;-84
2020/12/11 10:05:59;;;;;;;31.10;18.95;;;;;;;4.11;69.63;98746.91;5049403;28;20754;-85
2020/12/11 10:08:26;;;;;;;29.58;18.77;;;;;;;4.17;69.43;98757.13;5052077;28;20053;-89
2020/12/11 10:10:54;;;;;;;31.70;19.65;;;;;;;4.16;68.81;98744.09;5053428;28;20041;-86
2020/12/11 10:13:22;;;;;;;31.08;18.98;;;;;;;4.10;69.64;98739.13;5046514;28;20057;-87
2020/12/11 10:15:52;;;;;;;29.60;18.33;;;;;;;4.15;70.21;98745.84;5049181;28;20050;-87
2020/12/11 10:18:19;;;;;;;33.28;20.02;;;;;;;4.15;70.48;98739.75;5046028;28;20095;-85
2020/12/11 10:20:51;;;;;;;32.15;19.10;;;;;;;4.14;70.61;98736.28;5027626;28;20071;-86
2020/12/11 10:23:21;;;;;;;35.45;20.08;;;;;;;4.07;69.91;98734.06;5044080;28;20056;-83
2020/12/11 10:25:55;;;;;;;29.90;18.08;;;;;;;4.07;69.40;98729.66;5045736;28;20057;-83
2020/12/11 10:28:28;;;;;;;30.27;19.10;;;;;;;4.11;69.37;98704.16;5048844;28;20103;-85
2020/12/11 10:30:55;;;;;;;28.58;18.05;;;;;;;4.19;69.50;98713.34;5051546;28;20050;-86
2020/12/11 10:33:22;;;;;;;30.75;19.40;;;;;;;4.20;69.32;98708.97;5027675;28;20045;-85
2020/12/11 10:35:56;;;;;;;29.55;17.85;;;;;;;4.22;69.43;98696.66;5041039;28;20053;-87
2020/12/11 10:38:45;;;;;;;29.15;19.10;;;;;;;4.28;68.62;98709.44;5047684;28;20030;-84
2020/12/11 10:41:12;;;;;;;29.90;18.90;;;;;;;4.18;68.97;98671.50;5053142;28;20042;-84
2020/12/11 10:43:39;;;;;;;30.23;18.48;;;;;;;4.28;68.38;98698.94;5042995;28;20048;-86
2020/12/11 10:46:11;;;;;;;28.65;18.30;;;;;;;4.39;68.78;98699.31;5045943;28;20048;-85
2020/12/11 10:48:38;;;;;;;;;;;;;;;4.46;68.36;98695.44;5039646;28;20038;-85
2020/12/11 10:51:07;;;;;;;29.42;18.02;;;;;;;4.48;68.61;98696.22;5041423;28;19975;-86
2020/12/11 10:53:37;;;;;;;31.15;18.13;;;;;;;4.46;68.07;98684.97;5040040;28;20125;-85
2020/12/11 10:56:06;;;;;;;28.50;18.10;;;;;;;4.44;68.28;98689.41;5038978;28;20068;-86
2020/12/11 10:58:33;;;;;;;31.08;18.58;;;;;;;4.49;68.56;98681.34;5034406;28;20049;-88
2020/12/11 11:01:08;;;;;;;32.20;18.67;;;;;;;4.51;68.30;98672.47;5039445;28;20045;-85
2020/12/11 11:03:40;;;;;;;30.38;18.77;;;;;;;4.54;68.61;98674.97;5042453;28;20036;-87
2020/12/11 11:11:09;;;;;;;30.88;18.73;;;;;;;4.40;68.35;98663.47;5035872;28;20858;-85
2020/12/11 11:27:45;;;;;;;35.63;19.50;;;;;;;4.37;69.61;98627.78;5049715;28;20056;-82
2020/12/11 11:30:23;;;;;;;34.33;19.58;;;;;;;4.28;70.62;98622.97;5052133;28;20136;-84
2020/12/11 11:32:52;;;;;;;33.03;19.98;;;;;;;4.20;70.21;98615.50;5053255;28;20033;-80
2020/12/11 11:35:19;;;;;;;32.90;19.98;;;;;;;4.16;71.00;98618.34;5032805;28;20051;-81
2020/12/11 11:37:46;;;;;;;32.97;19.58;;;;;;;4.08;71.97;98605.63;5056243;28;20042;-80
2020/12/11 11:40:13;;;;;;;34.97;21.23;;;;;;;4.09;71.71;98606.50;5046208;28;20038;-79
2020/12/11 11:42:41;;;;;;;32.95;19.95;;;;;;;4.09;71.06;98594.22;5041020;28;20050;-86
2020/12/11 11:45:23;;;;;;;36.33;20.33;;;;;;;3.96;71.01;98587.03;5046189;28;20059;-86
2020/12/11 11:47:54;;;;;;;34.55;20.02;;;;;;;3.97;70.88;98583.50;5049369;28;20046;-86
2020/12/11 11:52:59;;;;;;;35.90;19.50;;;;;;;4.05;71.66;98568.25;5041332;28;19928;-87
2020/12/11 11:55:27;;;;;;;32.60;19.40;;;;;;;4.16;70.97;98574.66;5034145;28;20113;-86
2020/12/11 11:58:12;;;;;;;35.13;20.20;;;;;;;4.26;71.32;98571.56;5048272;28;20057;-85
2020/12/11 12:00:44;;;;;;;34.13;19.90;;;;;;;4.30;70.84;98571.34;5036602;28;20076;-88
2020/12/11 12:03:34;;;;;;;35.35;21.15;;;;;;;4.37;70.55;98566.66;5045422;28;20096;-87
2020/12/11 12:06:01;;;;;;;34.78;19.60;;;;;;;4.42;69.82;98551.53;5032363;28;20101;-87
2020/12/11 12:08:32;;;;;;;32.88;20.23;;;;;;;4.49;69.72;98566.88;5043083;28;20129;-88
2020/12/11 12:10:59;;;;;;;35.95;20.75;;;;;;;4.54;69.40;98561.41;5042135;28;20074;-87
2020/12/11 12:13:27;;;;;;;33.08;19.30;;;;;;;4.58;69.74;98548.03;5030750;28;20053;-87
2020/12/11 12:15:56;;;;;;;34.42;19.70;;;;;;;4.63;69.90;98558.28;5042581;28;20604;-87